Time;durP1;ratioP1;P1;durP2;ratioP2;P2;SDS_P1;SDS_P2;PMS_P1;PMS_P2;Temp;Humidity;BMP_temperature;BMP_pressure;BME280_temperature;BME280_humidity;BME280_pressure;Samples;Min_cycle;Max_cycle;Signal;HPM_P1;HPM_P2
2021/10/24 00:01:03;;;;;;;7.17;5.83;;;7.00;80.80;;;;;;5091695;28;20214;-89
2021/10/24 00:03:30;;;;;;;7.63;6.27;;;7.00;80.50;;;;;;5085059;28;20319;-89
2021/10/24 00:05:56;;;;;;;8.30;6.40;;;7.00;80.50;;;;;;5066394;28;20202;-90
2021/10/24 00:08:22;;;;;;;9.50;5.90;;;7.10;80.60;;;;;;5082209;28;20255;-89
2021/10/24 00:10:48;;;;;;;7.60;6.00;;;7.10;79.70;;;;;;5101069;28;20708;-90
2021/10/24 00:13:14;;;;;;;7.10;5.57;;;7.10;79.60;;;;;;5082604;28;20215;-90
2021/10/24 00:15:40;;;;;;;8.17;5.60;;;7.00;79.90;;;;;;5083876;28;20207;-89
2021/10/24 00:18:05;;;;;;;6.20;5.57;;;7.00;79.90;;;;;;5101948;28;20738;-90
2021/10/24 00:20:32;;;;;;;6.63;5.43;;;7.00;80.30;;;;;;5115766;28;20202;-90
2021/10/24 00:22:59;;;;;;;6.73;5.50;;;7.00;79.90;;;;;;5094948;28;20202;-90
2021/10/24 00:25:25;;;;;;;9.73;6.33;;;7.00;80.30;;;;;;5084957;28;20203;-90
2021/10/24 00:27:51;;;;;;;7.43;5.63;;;7.10;80.00;;;;;;5071682;28;20190;-91
2021/10/24 00:30:17;;;;;;;6.63;5.80;;;7.10;79.30;;;;;;5116248;28;20210;-90
2021/10/24 00:32:43;;;;;;;8.00;6.67;;;7.10;79.20;;;;;;5091939;28;20222;-90
2021/10/24 00:35:09;;;;;;;6.33;5.73;;;7.00;79.40;;;;;;5066562;28;20331;-90
2021/10/24 00:37:35;;;;;;;7.87;6.10;;;7.00;79.60;;;;;;5080297;28;20273;-90
2021/10/24 00:40:01;;;;;;;8.37;5.80;;;7.00;80.30;;;;;;5099365;28;20284;-90
2021/10/24 00:42:26;;;;;;;6.90;6.17;;;7.10;79.90;;;;;;5080897;28;20194;-90
2021/10/24 00:44:52;;;;;;;6.63;5.57;;;7.20;79.00;;;;;;5077478;28;20277;-90
2021/10/24 00:47:18;;;;;;;9.70;5.97;;;7.20;79.60;;;;;;5065955;28;20223;-90
2021/10/24 00:49:43;;;;;;;6.93;5.30;;;7.20;78.90;;;;;;5098414;28;20692;-90
2021/10/24 00:52:11;;;;;;;7.07;5.30;;;7.30;79.30;;;;;;5093761;28;20195;-90
2021/10/24 00:54:39;;;;;;;5.77;5.10;;;7.40;79.30;;;;;;5084163;28;20186;-90
2021/10/24 00:57:05;;;;;;;6.37;5.77;;;7.40;78.10;;;;;;5081640;28;20210;-89
2021/10/24 00:59:31;;;;;;;6.73;5.83;;;7.40;78.40;;;;;;5097794;28;20206;-90
2021/10/24 01:01:57;;;;;;;6.77;5.77;;;7.40;79.30;;;;;;5080548;28;20182;-90
2021/10/24 01:04:23;;;;;;;6.20;5.60;;;7.50;78.60;;;;;;5099584;28;20238;-90
2021/10/24 01:06:51;;;;;;;7.53;5.53;;;7.50;78.60;;;;;;5096113;28;20565;-90
2021/10/24 01:09:21;;;;;;;6.80;6.00;;;7.40;77.50;;;;;;5098609;28;20256;-90
2021/10/24 01:11:48;;;;;;;6.37;5.53;;;7.40;78.00;;;;;;5081108;28;20183;-89
2021/10/24 01:14:14;;;;;;;7.87;5.60;;;7.30;78.00;;;;;;5078407;28;20183;-90
2021/10/24 01:16:41;;;;;;;7.10;5.40;;;7.30;78.10;;;;;;5091978;28;20362;-90
2021/10/24 01:19:09;;;;;;;6.87;5.93;;;7.30;78.30;;;;;;5085546;28;20190;-90
2021/10/24 01:21:35;;;;;;;10.30;6.17;;;7.20;78.50;;;;;;5098837;28;20187;-90
2021/10/24 01:24:02;;;;;;;9.67;5.40;;;7.20;77.90;;;;;;5096766;28;20252;-90
2021/10/24 01:26:28;;;;;;;7.80;5.87;;;7.20;78.40;;;;;;5079194;28;20194;-90
2021/10/24 01:28:56;;;;;;;7.47;5.53;;;7.10;78.20;;;;;;5097882;28;20183;-90
2021/10/24 01:31:22;;;;;;;7.23;5.70;;;7.00;78.40;;;;;;5097692;28;20226;-90
2021/10/24 01:33:48;;;;;;;8.50;6.10;;;7.00;78.60;;;;;;5097348;28;20581;-90
2021/10/24 01:36:14;;;;;;;8.47;6.57;;;7.00;79.50;;;;;;5097871;28;20753;-89
2021/10/24 01:38:45;;;;;;;7.83;5.50;;;7.00;78.90;;;;;;5097345;28;20198;-90
2021/10/24 01:41:12;;;;;;;6.87;5.90;;;7.00;80.40;;;;;;5076445;28;20670;-90
2021/10/24 01:43:38;;;;;;;7.20;6.13;;;7.10;79.70;;;;;;5079523;28;20277;-90
2021/10/24 01:46:05;;;;;;;10.17;5.97;;;7.10;78.80;;;;;;5099251;28;20203;-89
2021/10/24 01:48:31;;;;;;;7.50;5.90;;;7.10;78.50;;;;;;5096870;28;20265;-90
2021/10/24 01:50:58;;;;;;;7.63;5.77;;;7.00;78.60;;;;;;5080684;28;20214;-90
2021/10/24 01:53:27;;;;;;;7.77;5.77;;;7.10;78.80;;;;;;5099100;28;20175;-89
2021/10/24 01:55:53;;;;;;;7.93;5.83;;;7.10;78.60;;;;;;5079615;28;20226;-90
2021/10/24 01:58:19;;;;;;;6.57;5.73;;;7.10;78.80;;;;;;5080334;28;20210;-89
2021/10/24 02:00:46;;;;;;;9.43;6.53;;;7.00;77.60;;;;;;5097959;28;20222;-89
2021/10/24 02:03:12;;;;;;;7.40;6.17;;;6.80;78.60;;;;;;5095446;28;20186;-89
2021/10/24 02:05:39;;;;;;;8.97;5.73;;;6.80;79.00;;;;;;5058244;28;20551;-90
2021/10/24 02:08:05;;;;;;;7.37;5.80;;;6.80;79.50;;;;;;5081658;28;20270;-90
2021/10/24 02:10:31;;;;;;;7.27;6.33;;;6.70;79.70;;;;;;5096108;28;20209;-89
2021/10/24 02:12:57;;;;;;;7.57;4.97;;;6.80;80.10;;;;;;5077278;28;20252;-90
2021/10/24 02:15:24;;;;;;;7.10;5.33;;;7.00;80.50;;;;;;5058791;28;20219;-89
2021/10/24 02:17:50;;;;;;;6.60;5.17;;;7.00;78.70;;;;;;5097166;28;20183;-90
2021/10/24 02:20:16;;;;;;;9.57;6.37;;;7.10;79.60;;;;;;5096790;28;20293;-89
2021/10/24 02:22:42;;;;;;;8.43;6.10;;;7.20;78.20;;;;;;5077505;28;20190;-88
2021/10/24 02:25:09;;;;;;;5.93;5.33;;;7.20;77.00;;;;;;5078215;28;20186;-91
2021/10/24 02:27:35;;;;;;;7.47;5.30;;;7.10;78.10;;;;;;5076188;28;20210;-90
2021/10/24 02:30:01;;;;;;;6.10;5.50;;;7.00;78.20;;;;;;5095603;28;20219;-91
2021/10/24 02:32:27;;;;;;;9.03;5.50;;;7.10;79.50;;;;;;5096344;28;20166;-91
2021/10/24 02:34:53;;;;;;;6.43;5.17;;;7.30;78.30;;;;;;5061665;28;20189;-90
2021/10/24 02:37:19;;;;;;;6.33;5.40;;;7.20;76.70;;;;;;5078835;28;20214;-91
2021/10/24 02:39:45;;;;;;;5.60;4.87;;;7.10;77.30;;;;;;5062090;28;20260;-90
2021/10/24 02:42:10;;;;;;;6.00;5.40;;;7.10;76.60;;;;;;5078599;28;20183;-91
2021/10/24 02:44:36;;;;;;;9.23;6.03;;;6.80;77.10;;;;;;5061496;28;20215;-90
2021/10/24 02:47:03;;;;;;;6.00;5.33;;;6.70;78.10;;;;;;5078304;28;20248;-90
2021/10/24 02:49:29;;;;;;;7.60;5.43;;;6.60;78.60;;;;;;5072402;28;20207;-91
2021/10/24 02:51:55;;;;;;;5.80;5.20;;;6.60;79.60;;;;;;5078506;28;20198;-90
2021/10/24 02:54:22;;;;;;;6.13;5.13;;;6.60;79.60;;;;;;5094828;28;20197;-91
2021/10/24 02:56:48;;;;;;;7.30;5.27;;;6.70;79.40;;;;;;5074906;28;20205;-90
2021/10/24 02:59:15;;;;;;;8.17;4.83;;;6.60;79.20;;;;;;5077182;28;20207;-90
2021/10/24 03:01:40;;;;;;;5.50;5.00;;;6.50;80.40;;;;;;5076763;28;20213;-90
2021/10/24 03:04:06;;;;;;;8.03;5.60;;;6.50;79.80;;;;;;5076155;28;20187;-91
2021/10/24 03:06:32;;;;;;;7.10;5.47;;;6.50;79.40;;;;;;5095381;28;20183;-91
2021/10/24 03:08:58;;;;;;;7.70;5.40;;;6.40;79.80;;;;;;5072762;28;20195;-91
2021/10/24 03:11:24;;;;;;;8.13;5.77;;;6.50;80.40;;;;;;5109868;28;20237;-90
2021/10/24 03:13:50;;;;;;;6.23;4.90;;;6.60;80.50;;;;;;5081793;28;20191;-90
2021/10/24 03:16:16;;;;;;;5.90;5.20;;;6.70;80.00;;;;;;5099935;28;20222;-91
2021/10/24 03:18:42;;;;;;;5.73;4.77;;;6.80;79.80;;;;;;5077837;28;20183;-91
2021/10/24 03:21:08;;;;;;;5.93;5.17;;;6.90;79.60;;;;;;5094695;28;20237;-91
2021/10/24 03:23:33;;;;;;;7.43;4.73;;;7.00;79.10;;;;;;5076617;28;20199;-90
2021/10/24 03:25:59;;;;;;;8.60;5.03;;;7.10;78.70;;;;;;5061927;28;20267;-90
2021/10/24 03:28:25;;;;;;;9.40;5.80;;;7.00;77.20;;;;;;5081566;28;20191;-91
2021/10/24 03:30:51;;;;;;;5.83;5.23;;;7.00;77.80;;;;;;5082624;28;20266;-90
2021/10/24 03:33:17;;;;;;;5.37;4.93;;;7.00;77.60;;;;;;5099766;28;20195;-91
2021/10/24 03:35:43;;;;;;;6.13;4.60;;;7.00;77.60;;;;;;5081312;28;20211;-90
2021/10/24 03:38:09;;;;;;;6.60;6.00;;;6.90;77.20;;;;;;5099348;28;20913;-91
2021/10/24 03:40:36;;;;;;;8.27;4.97;;;6.90;77.40;;;;;;5099911;28;20203;-91
2021/10/24 03:43:02;;;;;;;8.67;5.50;;;6.70;77.60;;;;;;5081768;28;20191;-90
2021/10/24 03:45:28;;;;;;;7.53;4.93;;;6.70;77.90;;;;;;5085302;28;20185;-90
2021/10/24 03:47:54;;;;;;;6.67;5.20;;;6.60;78.10;;;;;;5098861;28;20721;-91
2021/10/24 03:50:20;;;;;;;6.40;4.60;;;6.50;79.00;;;;;;5081385;28;20210;-91
2021/10/24 03:52:46;;;;;;;5.83;5.13;;;6.40;79.50;;;;;;5064352;28;20195;-91
2021/10/24 03:55:12;;;;;;;7.00;5.33;;;6.50;79.90;;;;;;5081971;28;20190;-90
2021/10/24 03:57:41;;;;;;;4.87;4.47;;;6.50;80.10;;;;;;5098940;28;20417;-90
2021/10/24 04:00:09;;;;;;;7.80;4.67;;;6.70;79.80;;;;;;5081646;28;20557;-90
2021/10/24 04:02:50;;;;;;;7.77;4.80;;;6.70;78.70;;;;;;5064402;28;20187;-91
2021/10/24 04:05:15;;;;;;;10.80;4.60;;;6.70;78.30;;;;;;5097784;28;20201;-90
2021/10/24 04:07:41;;;;;;;6.93;5.17;;;6.60;78.60;;;;;;5080714;28;20677;-91
2021/10/24 04:10:07;;;;;;;7.60;4.57;;;6.70;79.40;;;;;;5047623;28;20210;-91
2021/10/24 04:12:33;;;;;;;5.00;4.13;;;6.80;78.60;;;;;;5065362;28;20183;-91
2021/10/24 04:14:58;;;;;;;7.00;4.77;;;6.70;77.90;;;;;;5100684;28;20207;-92
2021/10/24 04:17:24;;;;;;;4.90;4.43;;;6.70;77.80;;;;;;5116206;28;20221;-91
2021/10/24 04:19:50;;;;;;;5.13;4.60;;;6.80;78.70;;;;;;5087880;28;20219;-90
2021/10/24 04:22:15;;;;;;;7.40;5.27;;;6.90;78.50;;;;;;5079527;28;20407;-90
2021/10/24 04:24:41;;;;;;;7.13;4.90;;;6.90;77.60;;;;;;5063772;28;20557;-90
2021/10/24 04:27:07;;;;;;;7.00;5.00;;;6.80;76.70;;;;;;5074322;28;20194;-90
2021/10/24 04:29:32;;;;;;;6.50;4.50;;;6.70;76.70;;;;;;5080748;28;20622;-91
2021/10/24 04:31:58;;;;;;;5.57;4.83;;;6.60;77.50;;;;;;5098213;28;20190;-90
2021/10/24 04:34:24;;;;;;;5.37;4.87;;;6.50;78.60;;;;;;5080623;28;20183;-90
2021/10/24 04:36:50;;;;;;;5.47;4.60;;;6.60;79.10;;;;;;5059940;28;20235;-91
2021/10/24 04:39:15;;;;;;;5.57;4.83;;;6.50;78.10;;;;;;5079505;28;20417;-90
2021/10/24 04:41:41;;;;;;;5.90;4.60;;;6.40;77.80;;;;;;5098175;28;20530;-90
2021/10/24 04:44:07;;;;;;;6.43;4.57;;;6.30;78.60;;;;;;5063233;28;20195;-90
2021/10/24 04:46:33;;;;;;;5.13;4.47;;;6.10;79.30;;;;;;5048720;28;20195;-91
2021/10/24 04:48:59;;;;;;;6.53;4.97;;;6.00;79.30;;;;;;5079761;28;20225;-90
2021/10/24 04:51:24;;;;;;;5.93;4.40;;;5.70;80.50;;;;;;5063848;28;20650;-90
2021/10/24 04:53:51;;;;;;;5.27;4.13;;;5.50;82.20;;;;;;5091775;28;20560;-91
2021/10/24 04:56:16;;;;;;;5.63;4.37;;;5.50;82.70;;;;;;5066922;28;20813;-91
2021/10/24 04:58:42;;;;;;;5.07;4.57;;;5.50;82.80;;;;;;5063541;28;20191;-90
2021/10/24 05:01:09;;;;;;;5.43;4.27;;;5.40;83.20;;;;;;5048512;28;20211;-91
2021/10/24 05:03:35;;;;;;;6.30;4.37;;;5.50;83.50;;;;;;5063837;28;20277;-90
2021/10/24 05:06:01;;;;;;;6.07;4.67;;;5.50;82.70;;;;;;5064056;28;20291;-91
2021/10/24 05:08:27;;;;;;;5.53;4.67;;;5.40;83.40;;;;;;5081525;28;20234;-90
2021/10/24 05:10:53;;;;;;;6.03;4.43;;;5.30;83.70;;;;;;5099419;28;20210;-90
2021/10/24 05:13:18;;;;;;;6.00;4.17;;;5.20;84.40;;;;;;5064655;28;20205;-90
2021/10/24 05:15:44;;;;;;;6.93;5.40;;;5.30;85.80;;;;;;5060083;28;20215;-91
2021/10/24 05:18:10;;;;;;;7.87;6.30;;;5.50;85.20;;;;;;5080741;28;20198;-90
2021/10/24 05:20:36;;;;;;;6.00;4.70;;;5.70;84.40;;;;;;5048168;28;20203;-91
2021/10/24 05:23:02;;;;;;;7.97;5.73;;;5.90;83.10;;;;;;5080631;28;20183;-91
2021/10/24 05:25:28;;;;;;;7.90;5.37;;;5.80;80.70;;;;;;5080804;28;20229;-90
2021/10/24 05:27:56;;;;;;;6.30;4.50;;;5.80;81.10;;;;;;5085429;28;20681;-91
2021/10/24 05:30:23;;;;;;;5.93;4.60;;;5.90;81.50;;;;;;5078691;28;20207;-91
2021/10/24 05:32:49;;;;;;;6.47;5.03;;;6.10;81.00;;;;;;5094122;28;20226;-90
2021/10/24 05:35:14;;;;;;;6.17;4.67;;;6.10;79.90;;;;;;5095507;28;20610;-90
2021/10/24 05:37:40;;;;;;;9.40;7.93;;;6.10;79.60;;;;;;5043932;28;20201;-90
2021/10/24 05:40:06;;;;;;;5.97;5.20;;;6.00;79.30;;;;;;5055884;28;20211;-90
2021/10/24 05:42:32;;;;;;;6.47;5.23;;;6.10;78.50;;;;;;5057930;28;20192;-91
2021/10/24 05:44:58;;;;;;;6.20;4.43;;;6.10;78.80;;;;;;5050775;28;20190;-90
2021/10/24 05:47:24;;;;;;;15.90;14.40;;;6.10;78.90;;;;;;5097132;28;20181;-91
2021/10/24 05:49:50;;;;;;;12.17;10.50;;;6.10;78.90;;;;;;5076693;28;20278;-91
2021/10/24 05:52:17;;;;;;;11.37;10.27;;;6.10;78.80;;;;;;5094161;28;20705;-90
2021/10/24 05:54:43;;;;;;;12.20;9.17;;;6.20;78.20;;;;;;5079334;28;20213;-90
2021/10/24 05:57:09;;;;;;;13.07;7.90;;;6.10;78.10;;;;;;5086306;28;20207;-92
2021/10/24 05:59:35;;;;;;;8.53;6.83;;;6.10;77.10;;;;;;5096752;28;20211;-92
2021/10/24 06:02:01;;;;;;;8.60;7.60;;;6.00;77.80;;;;;;5083351;28;20206;-91
2021/10/24 06:04:27;;;;;;;9.40;6.50;;;6.10;78.30;;;;;;5058515;28;20248;-88
2021/10/24 06:06:52;;;;;;;8.53;7.63;;;6.10;78.50;;;;;;5108605;28;20187;-88
2021/10/24 06:09:27;;;;;;;14.90;13.40;;;6.10;78.70;;;;;;5115936;28;20213;-88
2021/10/24 06:12:00;;;;;;;7.60;5.90;;;6.10;78.30;;;;;;5084821;28;20182;-88
2021/10/24 06:14:27;;;;;;;8.53;5.90;;;6.00;78.00;;;;;;5092553;28;20320;-89
2021/10/24 06:16:53;;;;;;;10.00;8.83;;;5.90;77.50;;;;;;5074957;28;20205;-90
2021/10/24 06:19:19;;;;;;;12.40;10.37;;;6.00;78.30;;;;;;5076647;28;20206;-90
2021/10/24 06:21:44;;;;;;;10.37;9.30;;;6.00;78.00;;;;;;5060721;28;20183;-90
2021/10/24 06:24:10;;;;;;;7.27;5.70;;;6.00;78.00;;;;;;5059963;28;20620;-88
2021/10/24 06:26:36;;;;;;;9.40;6.27;;;6.00;77.90;;;;;;5095928;28;20195;-89
2021/10/24 06:29:02;;;;;;;6.97;6.20;;;6.00;77.90;;;;;;5076902;28;20187;-90
2021/10/24 06:31:28;;;;;;;7.10;6.33;;;6.00;77.90;;;;;;5093534;28;20191;-90
2021/10/24 06:33:55;;;;;;;5.83;5.07;;;6.00;77.10;;;;;;5060863;28;20201;-90
2021/10/24 06:36:20;;;;;;;5.60;4.97;;;5.90;77.50;;;;;;5077243;28;20619;-90
2021/10/24 06:38:46;;;;;;;6.97;6.37;;;6.00;77.70;;;;;;5055868;28;20274;-90
2021/10/24 06:41:12;;;;;;;8.03;7.23;;;6.00;78.00;;;;;;5052150;28;20202;-90
2021/10/24 06:43:38;;;;;;;7.93;5.93;;;6.10;78.20;;;;;;5060948;28;20245;-89
2021/10/24 06:46:03;;;;;;;6.73;6.07;;;6.10;78.20;;;;;;5045095;28;20195;-90
2021/10/24 06:48:29;;;;;;;7.03;6.00;;;6.10;77.30;;;;;;5061994;28;20412;-88
2021/10/24 06:50:55;;;;;;;7.60;5.83;;;6.20;77.60;;;;;;5059885;28;20214;-90
2021/10/24 06:53:20;;;;;;;6.57;5.73;;;6.20;77.70;;;;;;5044320;28;20198;-90
2021/10/24 06:55:46;;;;;;;5.53;5.03;;;6.30;76.90;;;;;;5060022;28;20633;-89
2021/10/24 06:58:18;;;;;;;5.33;4.83;;;6.20;77.00;;;;;;5059695;28;20195;-89
2021/10/24 07:00:44;;;;;;;5.87;5.20;;;6.20;77.00;;;;;;5061504;28;20204;-89
2021/10/24 07:03:09;;;;;;;6.87;4.77;;;6.30;77.50;;;;;;5063890;28;20198;-89
2021/10/24 07:05:37;;;;;;;5.47;4.70;;;6.30;78.00;;;;;;5088676;28;20653;-89
2021/10/24 07:08:05;;;;;;;4.90;4.33;;;6.30;78.10;;;;;;5048723;28;20184;-89
2021/10/24 07:10:30;;;;;;;8.37;4.63;;;6.30;79.00;;;;;;5071252;28;20208;-89
2021/10/24 07:12:56;;;;;;;4.50;4.10;;;6.30;79.20;;;;;;5075746;28;20186;-89
2021/10/24 07:15:23;;;;;;;6.53;4.13;;;6.40;79.00;;;;;;5064820;28;20255;-89
2021/10/24 07:17:48;;;;;;;4.40;4.00;;;6.40;78.90;;;;;;5101526;28;20180;-89
2021/10/24 07:20:14;;;;;;;5.57;4.80;;;6.40;79.00;;;;;;5066504;28;20210;-89
2021/10/24 07:22:40;;;;;;;5.43;4.93;;;6.50;79.00;;;;;;5083983;28;20693;-89
2021/10/24 07:25:06;;;;;;;5.37;4.43;;;6.50;78.60;;;;;;5094797;28;20202;-89
2021/10/24 07:27:32;;;;;;;6.00;4.43;;;6.50;79.00;;;;;;5101108;28;20217;-89
2021/10/24 07:29:58;;;;;;;6.63;4.70;;;6.60;78.90;;;;;;5078416;28;20579;-89
2021/10/24 07:32:24;;;;;;;5.30;4.27;;;6.60;78.60;;;;;;5063777;28;20300;-89
2021/10/24 07:34:50;;;;;;;4.73;4.33;;;6.50;79.00;;;;;;5079729;28;20372;-89
2021/10/24 07:37:16;;;;;;;4.53;4.13;;;6.60;79.70;;;;;;5081087;28;20230;-89
2021/10/24 07:39:42;;;;;;;9.03;4.50;;;6.60;79.30;;;;;;5082181;28;20211;-89
2021/10/24 07:42:09;;;;;;;6.53;4.77;;;6.50;79.60;;;;;;5076602;28;20709;-89
2021/10/24 07:44:35;;;;;;;5.13;4.73;;;6.50;79.30;;;;;;5090087;28;20211;-90
2021/10/24 07:47:00;;;;;;;5.17;4.43;;;6.40;80.30;;;;;;5090674;28;20198;-89
2021/10/24 07:49:26;;;;;;;5.57;4.37;;;6.50;81.30;;;;;;5082875;28;20237;-89
2021/10/24 07:51:52;;;;;;;5.67;4.77;;;6.50;80.90;;;;;;5079137;28;20195;-89
2021/10/24 07:54:18;;;;;;;5.83;4.50;;;6.60;81.10;;;;;;5063509;28;20206;-89
2021/10/24 07:56:44;;;;;;;5.43;4.53;;;6.60;81.10;;;;;;5089506;28;20206;-89
2021/10/24 07:59:11;;;;;;;6.63;5.70;;;6.70;80.80;;;;;;5087283;28;20507;-89
2021/10/24 08:01:37;;;;;;;5.53;5.03;;;6.70;80.70;;;;;;5084475;28;20212;-89
2021/10/24 08:04:07;;;;;;;6.03;5.10;;;6.60;80.30;;;;;;5075325;28;20189;-89
2021/10/24 08:06:33;;;;;;;7.00;5.40;;;6.40;81.10;;;;;;5110465;28;20182;-90
2021/10/24 08:09:08;;;;;;;5.37;4.87;;;6.40;81.20;;;;;;5083320;28;20187;-89
2021/10/24 08:11:34;;;;;;;6.57;5.30;;;6.30;81.70;;;;;;5089304;28;20218;-89
2021/10/24 08:14:02;;;;;;;10.27;6.47;;;6.20;82.20;;;;;;5080591;28;20269;-90
2021/10/24 08:16:28;;;;;;;6.13;5.23;;;6.30;82.30;;;;;;5079413;28;20255;-90
2021/10/24 08:18:53;;;;;;;11.70;5.97;;;6.20;83.00;;;;;;5075314;28;20178;-90
2021/10/24 08:21:19;;;;;;;6.07;5.47;;;6.10;83.60;;;;;;5097662;28;20279;-89
2021/10/24 08:23:45;;;;;;;6.13;5.53;;;6.10;84.70;;;;;;5079676;28;20222;-89
2021/10/24 08:26:15;;;;;;;6.17;5.57;;;6.20;84.90;;;;;;5077951;28;20296;-89
2021/10/24 08:28:41;;;;;;;5.70;5.10;;;6.30;84.10;;;;;;5062732;28;20272;-90
2021/10/24 08:31:07;;;;;;;6.33;5.00;;;6.60;82.70;;;;;;5065553;28;20206;-89
2021/10/24 08:33:33;;;;;;;9.17;6.33;;;6.80;81.40;;;;;;5063375;28;20187;-89
2021/10/24 08:36:00;;;;;;;7.00;5.27;;;6.80;80.00;;;;;;5065902;28;20286;-89
2021/10/24 08:38:30;;;;;;;7.57;5.33;;;6.90;80.90;;;;;;5080735;28;20180;-90
2021/10/24 08:40:57;;;;;;;6.13;4.67;;;7.20;79.60;;;;;;5062496;28;20535;-90
2021/10/24 08:43:32;;;;;;;6.40;5.70;;;7.30;79.60;;;;;;5063159;28;20192;-90
2021/10/24 08:46:02;;;;;;;7.43;5.50;;;7.20;79.10;;;;;;5099038;28;20167;-90
2021/10/24 08:48:27;;;;;;;6.37;5.73;;;7.10;78.80;;;;;;5072304;28;20190;-90
2021/10/24 08:50:53;;;;;;;7.47;6.30;;;7.10;78.70;;;;;;5065247;28;20705;-90
2021/10/24 08:53:24;;;;;;;6.63;5.97;;;7.10;79.40;;;;;;5091676;27;20190;-90
2021/10/24 08:55:51;;;;;;;6.80;6.20;;;7.10;80.20;;;;;;5100198;28;20341;-90
2021/10/24 08:58:18;;;;;;;7.97;6.50;;;7.10;81.40;;;;;;5091322;28;20194;-90
2021/10/24 09:00:43;;;;;;;7.20;5.97;;;7.20;80.60;;;;;;5082264;28;20673;-90
2021/10/24 09:03:10;;;;;;;7.43;6.27;;;7.20;81.10;;;;;;5061160;28;20176;-89
2021/10/24 09:05:42;;;;;;;7.43;6.13;;;7.30;80.70;;;;;;5100070;28;20187;-90
2021/10/24 09:08:23;;;;;;;8.37;5.87;;;7.40;79.80;;;;;;5098538;28;20781;-90
2021/10/24 09:10:54;;;;;;;9.47;6.37;;;7.40;79.80;;;;;;5093590;28;20230;-89
2021/10/24 09:13:28;;;;;;;8.30;5.63;;;7.40;80.50;;;;;;5081084;28;20191;-90
2021/10/24 09:16:00;;;;;;;8.50;5.90;;;7.70;79.40;;;;;;5080687;28;20218;-90
2021/10/24 09:18:38;;;;;;;7.07;5.87;;;7.70;78.60;;;;;;5099220;28;20183;-90
2021/10/24 09:21:15;;;;;;;7.20;6.23;;;7.80;78.70;;;;;;5081956;28;20219;-90
2021/10/24 09:23:45;;;;;;;6.90;6.20;;;7.80;77.40;;;;;;5080810;28;20257;-90
2021/10/24 09:26:25;;;;;;;6.47;5.87;;;7.90;77.30;;;;;;5079352;28;20191;-89
2021/10/24 09:29:13;;;;;;;10.37;6.40;;;8.00;76.50;;;;;;5080622;28;20277;-90
2021/10/24 09:31:44;;;;;;;7.27;6.30;;;8.20;76.00;;;;;;5063656;28;20766;-90
2021/10/24 09:34:22;;;;;;;9.10;6.63;;;8.40;74.30;;;;;;5080196;28;20197;-90
2021/10/24 09:36:59;;;;;;;7.27;6.13;;;8.60;73.90;;;;;;5078235;28;20237;-90
2021/10/24 09:39:30;;;;;;;10.40;6.57;;;8.90;74.20;;;;;;5073968;28;20206;-90
2021/10/24 09:42:16;;;;;;;6.63;5.43;;;8.90;73.50;;;;;;5060635;28;20183;-89
2021/10/24 09:45:00;;;;;;;7.30;6.30;;;9.20;72.70;;;;;;5080249;28;20183;-90
2021/10/24 09:47:26;;;;;;;7.83;6.10;;;9.30;73.10;;;;;;5079863;28;20187;-90
2021/10/24 09:49:53;;;;;;;8.07;6.00;;;9.60;71.40;;;;;;5060067;28;20218;-90
2021/10/24 09:52:32;;;;;;;7.17;6.00;;;9.90;70.20;;;;;;5080019;28;20187;-90
2021/10/24 09:54:58;;;;;;;6.00;5.50;;;9.90;70.90;;;;;;5081375;28;20206;-89
2021/10/24 09:57:24;;;;;;;7.83;6.33;;;10.00;69.10;;;;;;5078561;28;20214;-89
2021/10/24 09:59:53;;;;;;;6.47;5.87;;;10.00;69.80;;;;;;5096466;28;20252;-90
2021/10/24 10:02:20;;;;;;;7.10;5.70;;;9.90;69.40;;;;;;5099464;28;20281;-89
2021/10/24 10:04:46;;;;;;;7.70;5.83;;;10.10;68.80;;;;;;5098898;28;20735;-90
2021/10/24 10:07:14;;;;;;;8.10;5.80;;;10.60;67.40;;;;;;5079270;28;20213;-90
2021/10/24 10:09:42;;;;;;;6.13;5.50;;;11.00;65.70;;;;;;5078716;28;20208;-90
2021/10/24 10:12:09;;;;;;;6.93;5.47;;;11.20;64.30;;;;;;5073552;28;20199;-90
2021/10/24 10:14:38;;;;;;;8.97;5.57;;;11.20;63.90;;;;;;5077548;28;20195;-90
2021/10/24 10:17:10;;;;;;;5.07;4.50;;;11.30;63.20;;;;;;5079445;28;20224;-89
2021/10/24 10:19:38;;;;;;;8.43;5.20;;;11.40;61.30;;;;;;5080194;28;20208;-90
2021/10/24 10:22:22;;;;;;;6.03;5.43;;;11.50;62.60;;;;;;5075782;28;20185;-90
2021/10/24 10:25:06;;;;;;;5.33;4.87;;;11.40;64.40;;;;;;5078579;28;20193;-90
2021/10/24 10:27:38;;;;;;;6.27;5.67;;;11.70;64.20;;;;;;5076090;28;20224;-90
2021/10/24 10:30:05;;;;;;;7.17;5.90;;;11.70;64.60;;;;;;5091379;28;20655;-90
2021/10/24 10:32:33;;;;;;;6.90;5.67;;;11.60;64.40;;;;;;5076590;28;20197;-90
2021/10/24 10:35:04;;;;;;;6.23;5.63;;;11.40;64.00;;;;;;5076317;28;20204;-90
2021/10/24 10:37:52;;;;;;;6.10;5.50;;;11.80;63.40;;;;;;5078057;28;20268;-90
2021/10/24 10:40:30;;;;;;;6.17;5.57;;;11.80;62.70;;;;;;5060322;28;20217;-90
2021/10/24 10:43:04;;;;;;;6.57;5.23;;;12.00;62.20;;;;;;5069442;28;20201;-90
2021/10/24 10:45:36;;;;;;;6.07;5.03;;;11.90;62.00;;;;;;5036497;28;20198;-90
2021/10/24 10:48:22;;;;;;;5.73;5.07;;;12.00;61.30;;;;;;5059303;28;20250;-90
2021/10/24 10:50:49;;;;;;;5.60;5.10;;;12.00;60.50;;;;;;5077083;28;20201;-89
2021/10/24 10:53:46;;;;;;;6.03;5.47;;;12.00;61.70;;;;;;5074856;28;20197;-90
2021/10/24 10:56:12;;;;;;;5.73;5.00;;;12.30;59.80;;;;;;5097033;28;20695;-90
2021/10/24 10:58:46;;;;;;;5.50;5.10;;;12.20;60.40;;;;;;5099623;28;20190;-90
2021/10/24 11:01:33;;;;;;;6.20;5.10;;;12.90;59.10;;;;;;5077858;28;20273;-90
2021/10/24 11:04:15;;;;;;;5.90;4.80;;;12.90;58.40;;;;;;5082385;28;20271;-90
2021/10/24 11:06:40;;;;;;;5.50;4.80;;;12.80;60.90;;;;;;5091791;28;20188;-90
2021/10/24 11:09:11;;;;;;;6.40;5.03;;;13.30;58.50;;;;;;5079072;28;20209;-90
2021/10/24 11:11:45;;;;;;;5.90;5.30;;;13.70;56.40;;;;;;5064345;28;20257;-90
2021/10/24 11:14:11;;;;;;;6.53;5.93;;;13.80;56.80;;;;;;5100083;28;20196;-90
2021/10/24 11:16:37;;;;;;;5.90;5.40;;;14.20;55.50;;;;;;5081605;28;20675;-90
2021/10/24 11:19:26;;;;;;;5.17;4.67;;;13.60;56.50;;;;;;5090589;28;20305;-90
2021/10/24 11:21:55;;;;;;;8.97;5.37;;;14.00;56.00;;;;;;5096800;28;20194;-91
2021/10/24 11:24:40;;;;;;;5.03;4.50;;;14.10;56.40;;;;;;5076898;28;20199;-90
2021/10/24 11:27:13;;;;;;;6.00;5.40;;;14.60;54.20;;;;;;5080672;28;20261;-90
2021/10/24 11:29:54;;;;;;;6.67;4.80;;;15.00;52.80;;;;;;5065642;28;20242;-90
2021/10/24 11:32:33;;;;;;;5.70;5.10;;;15.40;52.30;;;;;;5089176;28;20182;-90
2021/10/24 11:35:00;;;;;;;5.63;5.03;;;15.40;51.70;;;;;;5094344;28;20187;-91
2021/10/24 11:37:37;;;;;;;5.63;5.13;;;14.80;52.80;;;;;;5099022;28;20207;-90
2021/10/24 11:40:12;;;;;;;6.03;5.40;;;14.90;52.90;;;;;;5082742;28;20240;-90
2021/10/24 11:42:39;;;;;;;7.63;5.30;;;14.90;53.20;;;;;;5096345;28;20186;-90
2021/10/24 11:45:25;;;;;;;6.97;5.23;;;15.20;51.60;;;;;;5089914;28;20193;-90
2021/10/24 11:48:12;;;;;;;5.50;4.63;;;15.70;50.80;;;;;;5079027;28;20187;-90
2021/10/24 11:50:58;;;;;;;6.00;5.40;;;16.10;49.30;;;;;;5071842;28;20305;-90
2021/10/24 11:53:30;;;;;;;6.17;5.53;;;16.50;49.30;;;;;;5067178;28;20218;-90
2021/10/24 11:56:00;;;;;;;6.93;5.60;;;16.70;47.40;;;;;;5099073;28;20228;-90
2021/10/24 12:01:24;;;;;;;8.93;5.27;;;16.90;46.80;;;;;;5089319;28;20504;-90
2021/10/24 12:04:08;;;;;;;6.87;5.87;;;17.00;46.80;;;;;;5103936;28;20686;-90
2021/10/24 12:06:52;;;;;;;5.97;5.30;;;16.90;47.80;;;;;;5084734;28;20184;-91
2021/10/24 12:09:37;;;;;;;5.77;5.20;;;17.20;46.80;;;;;;5084776;28;20191;-90
2021/10/24 12:12:15;;;;;;;5.43;5.00;;;17.20;47.10;;;;;;5077657;28;20185;-91
2021/10/24 12:14:54;;;;;;;6.53;5.40;;;17.10;47.20;;;;;;5084065;28;20189;-91
2021/10/24 12:17:29;;;;;;;5.50;5.00;;;17.30;47.10;;;;;;5096324;28;20641;-91
2021/10/24 12:20:11;;;;;;;5.55;5.13;;;17.70;46.20;;;;;;5086145;28;20227;-91
2021/10/24 12:22:49;;;;;;;5.80;5.10;;;18.30;44.10;;;;;;5104102;28;20178;-91
2021/10/24 12:25:18;;;;;;;5.88;5.32;;;18.30;45.30;;;;;;5070054;28;20212;-91
2021/10/24 12:28:04;;;;;;;5.63;4.97;;;18.50;43.80;;;;;;5081972;28;20179;-90
2021/10/24 12:30:36;;;;;;;5.90;4.88;;;18.80;43.70;;;;;;5074926;28;20355;-91
2021/10/24 12:33:25;;;;;;;5.70;4.90;;;18.60;43.20;;;;;;5078885;28;20603;-91
2021/10/24 12:35:52;;;;;;;6.00;5.38;;;18.20;44.70;;;;;;5094647;28;20213;-91
2021/10/24 12:38:18;;;;;;;6.07;4.95;;;18.30;44.50;;;;;;5098747;28;20187;-91
2021/10/24 12:40:56;;;;;;;4.93;4.53;;;18.80;43.00;;;;;;5064097;28;20206;-90
2021/10/24 12:43:23;;;;;;;8.30;5.38;;;18.80;42.50;;;;;;5082624;28;20534;-91
2021/10/24 12:45:57;;;;;;;6.47;5.10;;;18.70;43.40;;;;;;5101462;28;20202;-90
2021/10/24 12:48:46;;;;;;;5.10;4.60;;;18.40;45.10;;;;;;5065784;28;20660;-90
2021/10/24 12:51:40;;;;;;;5.70;4.82;;;18.80;42.80;;;;;;5081614;28;20229;-90
2021/10/24 12:54:09;;;;;;;5.20;4.75;;;19.30;41.20;;;;;;5097042;28;20213;-90
2021/10/24 12:56:38;;;;;;;6.38;4.90;;;19.10;40.60;;;;;;5079149;28;20201;-91
2021/10/24 12:59:04;;;;;;;6.53;5.30;;;19.00;41.60;;;;;;5098716;28;20199;-91
2021/10/24 13:01:32;;;;;;;5.15;4.65;;;19.10;41.50;;;;;;5081059;28;20187;-91
2021/10/24 13:03:59;;;;;;;6.63;4.45;;;19.30;40.30;;;;;;5082297;28;20198;-90